sensor_id;sensor_type;location;lat;lon;timestamp;pressure;altitude;pressure_sealevel;temperature;humidity
40908;BME280;51055;59.436;24.778;2022-09-21T00:01:36;101841.66;;;11.51;87.37
40908;BME280;51055;59.436;24.778;2022-09-21T00:04:04;101842.94;;;11.58;87.59
40908;BME280;51055;59.436;24.778;2022-09-21T00:06:33;101841.13;;;11.59;87.26
40908;BME280;51055;59.436;24.778;2022-09-21T00:09:01;101849.22;;;11.57;86.77
40908;BME280;51055;59.436;24.778;2022-09-21T00:11:33;101845.44;;;11.47;88.41
40908;BME280;51055;59.436;24.778;2022-09-21T00:14:05;101847.66;;;11.40;89.95
40908;BME280;51055;59.436;24.778;2022-09-21T00:16:36;101846.38;;;11.46;90.05
40908;BME280;51055;59.436;24.778;2022-09-21T00:19:04;101847.44;;;11.43;90.47
40908;BME280;51055;59.436;24.778;2022-09-21T00:21:33;101851.06;;;11.42;91.15
40908;BME280;51055;59.436;24.778;2022-09-21T00:24:01;101850.38;;;11.39;91.71
40908;BME280;51055;59.436;24.778;2022-09-21T00:26:29;101850.72;;;11.34;91.40
40908;BME280;51055;59.436;24.778;2022-09-21T00:28:59;101851.00;;;11.30;91.33
40908;BME280;51055;59.436;24.778;2022-09-21T00:31:28;101856.75;;;11.36;91.15
40908;BME280;51055;59.436;24.778;2022-09-21T00:33:58;101861.63;;;11.30;91.37
40908;BME280;51055;59.436;24.778;2022-09-21T00:36:27;101862.19;;;11.35;91.57
40908;BME280;51055;59.436;24.778;2022-09-21T00:38:57;101858.28;;;11.40;91.78
40908;BME280;51055;59.436;24.778;2022-09-21T00:41:25;101855.50;;;11.42;90.62
40908;BME280;51055;59.436;24.778;2022-09-21T00:44:27;101862.72;;;11.40;88.53
40908;BME280;51055;59.436;24.778;2022-09-21T00:46:59;101855.56;;;11.28;89.15
40908;BME280;51055;59.436;24.778;2022-09-21T00:49:28;101865.88;;;11.32;88.02
40908;BME280;51055;59.436;24.778;2022-09-21T00:51:57;101872.09;;;11.19;88.07
40908;BME280;51055;59.436;24.778;2022-09-21T00:54:29;101869.06;;;11.11;88.08
40908;BME280;51055;59.436;24.778;2022-09-21T00:57:00;101872.91;;;11.19;88.76
40908;BME280;51055;59.436;24.778;2022-09-21T00:59:31;101871.97;;;11.20;87.59
40908;BME280;51055;59.436;24.778;2022-09-21T01:02:00;101875.28;;;11.24;87.81
40908;BME280;51055;59.436;24.778;2022-09-21T01:04:28;101868.59;;;11.18;86.73
40908;BME280;51055;59.436;24.778;2022-09-21T01:06:58;101863.66;;;11.12;86.60
40908;BME280;51055;59.436;24.778;2022-09-21T01:09:27;101869.31;;;11.20;87.07
40908;BME280;51055;59.436;24.778;2022-09-21T01:15:15;101876.81;;;11.28;86.74
40908;BME280;51055;59.436;24.778;2022-09-21T01:20:38;101880.22;;;11.30;86.89
40908;BME280;51055;59.436;24.778;2022-09-21T01:23:45;101881.63;;;11.35;85.95
40908;BME280;51055;59.436;24.778;2022-09-21T01:32:21;101885.63;;;11.28;86.72
40908;BME280;51055;59.436;24.778;2022-09-21T01:34:35;101891.25;;;11.10;86.66
40908;BME280;51055;59.436;24.778;2022-09-21T01:37:10;101888.22;;;11.16;86.07
40908;BME280;51055;59.436;24.778;2022-09-21T01:39:44;101896.81;;;11.19;86.07
40908;BME280;51055;59.436;24.778;2022-09-21T01:42:14;101899.22;;;11.10;85.41
40908;BME280;51055;59.436;24.778;2022-09-21T01:44:44;101897.03;;;11.16;85.52
40908;BME280;51055;59.436;24.778;2022-09-21T01:47:15;101902.25;;;11.18;84.53
40908;BME280;51055;59.436;24.778;2022-09-21T01:49:50;101904.72;;;11.07;85.13
40908;BME280;51055;59.436;24.778;2022-09-21T01:52:28;101903.69;;;11.09;85.83
40908;BME280;51055;59.436;24.778;2022-09-21T01:55:04;101898.66;;;11.05;85.38
40908;BME280;51055;59.436;24.778;2022-09-21T01:57:41;101904.81;;;11.05;85.14
40908;BME280;51055;59.436;24.778;2022-09-21T02:00:11;101905.97;;;11.01;84.46
40908;BME280;51055;59.436;24.778;2022-09-21T02:03:20;101912.13;;;11.02;84.81
40908;BME280;51055;59.436;24.778;2022-09-21T02:05:42;101913.25;;;10.97;86.07
40908;BME280;51055;59.436;24.778;2022-09-21T02:08:10;101926.72;;;10.94;85.83
40908;BME280;51055;59.436;24.778;2022-09-21T02:10:46;101916.50;;;10.88;86.19
40908;BME280;51055;59.436;24.778;2022-09-21T02:13:16;101925.31;;;10.89;87.14
40908;BME280;51055;59.436;24.778;2022-09-21T02:20:59;101929.31;;;10.96;85.84
40908;BME280;51055;59.436;24.778;2022-09-21T02:23:44;101930.13;;;10.96;85.49
40908;BME280;51055;59.436;24.778;2022-09-21T02:26:20;101936.41;;;10.95;85.35
40908;BME280;51055;59.436;24.778;2022-09-21T02:29:06;101933.63;;;10.97;85.19
40908;BME280;51055;59.436;24.778;2022-09-21T02:31:50;101939.72;;;10.85;84.92
40908;BME280;51055;59.436;24.778;2022-09-21T02:34:35;101941.78;;;10.94;85.56
40908;BME280;51055;59.436;24.778;2022-09-21T02:39:54;101939.06;;;10.95;86.41
40908;BME280;51055;59.436;24.778;2022-09-21T02:42:34;101940.28;;;10.90;86.46
40908;BME280;51055;59.436;24.778;2022-09-21T02:45:13;101940.28;;;10.76;86.79
40908;BME280;51055;59.436;24.778;2022-09-21T02:50:43;101949.09;;;10.76;87.36
40908;BME280;51055;59.436;24.778;2022-09-21T02:53:16;101945.28;;;10.80;86.33
40908;BME280;51055;59.436;24.778;2022-09-21T02:55:46;101948.63;;;10.70;85.61
40908;BME280;51055;59.436;24.778;2022-09-21T02:58:25;101961.88;;;10.70;86.43
40908;BME280;51055;59.436;24.778;2022-09-21T03:00:55;101958.00;;;10.75;85.77
40908;BME280;51055;59.436;24.778;2022-09-21T03:03:24;101955.97;;;10.65;85.11
40908;BME280;51055;59.436;24.778;2022-09-21T03:05:53;101966.28;;;10.55;85.09
40908;BME280;51055;59.436;24.778;2022-09-21T03:08:21;101965.53;;;10.53;85.02
40908;BME280;51055;59.436;24.778;2022-09-21T03:10:49;101969.31;;;10.49;84.88
40908;BME280;51055;59.436;24.778;2022-09-21T03:13:17;101972.16;;;10.46;85.56
40908;BME280;51055;59.436;24.778;2022-09-21T03:15:45;101975.84;;;10.43;86.10
40908;BME280;51055;59.436;24.778;2022-09-21T03:18:13;101971.28;;;10.45;84.64
40908;BME280;51055;59.436;24.778;2022-09-21T03:20:44;101972.78;;;10.35;85.53
40908;BME280;51055;59.436;24.778;2022-09-21T03:23:13;101977.63;;;10.43;85.93
40908;BME280;51055;59.436;24.778;2022-09-21T03:25:43;101975.00;;;10.43;85.79
40908;BME280;51055;59.436;24.778;2022-09-21T03:28:13;101984.91;;;10.39;86.24
40908;BME280;51055;59.436;24.778;2022-09-21T03:30:41;101985.91;;;10.23;85.85
40908;BME280;51055;59.436;24.778;2022-09-21T03:33:09;101989.41;;;10.23;86.51
40908;BME280;51055;59.436;24.778;2022-09-21T03:35:39;101991.28;;;10.21;86.56
40908;BME280;51055;59.436;24.778;2022-09-21T03:38:07;101995.47;;;10.10;86.71
40908;BME280;51055;59.436;24.778;2022-09-21T03:40:35;101990.69;;;10.16;86.64
40908;BME280;51055;59.436;24.778;2022-09-21T03:43:03;101997.38;;;10.08;86.09
40908;BME280;51055;59.436;24.778;2022-09-21T03:45:30;101997.44;;;10.06;86.03
40908;BME280;51055;59.436;24.778;2022-09-21T03:47:59;101996.56;;;10.06;85.74
40908;BME280;51055;59.436;24.778;2022-09-21T03:50:27;101999.16;;;10.07;85.74
40908;BME280;51055;59.436;24.778;2022-09-21T03:52:56;102001.38;;;9.99;85.80
40908;BME280;51055;59.436;24.778;2022-09-21T03:55:23;101998.72;;;9.99;85.59
40908;BME280;51055;59.436;24.778;2022-09-21T03:57:51;102002.22;;;10.00;84.79
40908;BME280;51055;59.436;24.778;2022-09-21T04:00:19;102007.53;;;10.00;85.32
40908;BME280;51055;59.436;24.778;2022-09-21T04:02:47;102014.22;;;9.91;85.52
40908;BME280;51055;59.436;24.778;2022-09-21T04:05:16;102016.88;;;9.91;85.72
40908;BME280;51055;59.436;24.778;2022-09-21T04:07:44;102016.88;;;9.91;86.56
40908;BME280;51055;59.436;24.778;2022-09-21T04:10:14;102018.72;;;9.89;86.35
40908;BME280;51055;59.436;24.778;2022-09-21T04:12:43;102017.56;;;9.94;87.44
40908;BME280;51055;59.436;24.778;2022-09-21T04:15:16;102010.53;;;9.93;87.20
40908;BME280;51055;59.436;24.778;2022-09-21T04:17:46;102016.19;;;9.87;87.16
40908;BME280;51055;59.436;24.778;2022-09-21T04:20:18;102029.44;;;9.87;86.80
40908;BME280;51055;59.436;24.778;2022-09-21T04:22:46;102020.53;;;9.88;86.45
40908;BME280;51055;59.436;24.778;2022-09-21T04:25:14;102025.66;;;9.91;86.91
40908;BME280;51055;59.436;24.778;2022-09-21T04:27:42;102031.56;;;9.97;86.78
40908;BME280;51055;59.436;24.778;2022-09-21T04:30:11;102029.31;;;10.05;86.18
40908;BME280;51055;59.436;24.778;2022-09-21T04:32:39;102025.06;;;10.02;86.83
40908;BME280;51055;59.436;24.778;2022-09-21T04:35:07;102034.63;;;10.05;86.50
40908;BME280;51055;59.436;24.778;2022-09-21T04:37:35;102033.03;;;10.18;86.39
40908;BME280;51055;59.436;24.778;2022-09-21T04:40:03;102032.59;;;10.10;86.44
40908;BME280;51055;59.436;24.778;2022-09-21T04:42:32;102041.16;;;10.30;87.03
40908;BME280;51055;59.436;24.778;2022-09-21T04:45:00;102048.06;;;10.33;86.84
40908;BME280;51055;59.436;24.778;2022-09-21T04:47:30;102041.72;;;10.35;87.01
40908;BME280;51055;59.436;24.778;2022-09-21T04:49:58;102045.94;;;10.39;86.89
40908;BME280;51055;59.436;24.778;2022-09-21T04:52:26;102053.03;;;10.39;86.31
40908;BME280;51055;59.436;24.778;2022-09-21T04:54:53;102058.91;;;10.44;86.00
40908;BME280;51055;59.436;24.778;2022-09-21T04:57:21;102058.66;;;10.49;86.40
40908;BME280;51055;59.436;24.778;2022-09-21T04:59:48;102057.44;;;10.54;86.39
40908;BME280;51055;59.436;24.778;2022-09-21T05:02:16;102058.47;;;10.52;86.41
40908;BME280;51055;59.436;24.778;2022-09-21T05:04:44;102060.19;;;10.53;86.15
40908;BME280;51055;59.436;24.778;2022-09-21T05:07:17;102058.84;;;10.45;86.54
40908;BME280;51055;59.436;24.778;2022-09-21T05:09:45;102063.38;;;10.43;87.28
40908;BME280;51055;59.436;24.778;2022-09-21T05:12:32;102065.69;;;10.50;86.71
40908;BME280;51055;59.436;24.778;2022-09-21T05:15:01;102068.84;;;10.56;86.64
40908;BME280;51055;59.436;24.778;2022-09-21T05:17:31;102078.59;;;10.56;85.56
40908;BME280;51055;59.436;24.778;2022-09-21T05:19:59;102075.00;;;10.41;86.20
40908;BME280;51055;59.436;24.778;2022-09-21T05:22:27;102080.31;;;10.41;86.60
40908;BME280;51055;59.436;24.778;2022-09-21T05:24:54;102082.34;;;10.52;86.84
40908;BME280;51055;59.436;24.778;2022-09-21T05:27:22;102076.50;;;10.61;86.54
40908;BME280;51055;59.436;24.778;2022-09-21T05:29:49;102083.16;;;10.68;85.53
40908;BME280;51055;59.436;24.778;2022-09-21T05:32:48;102080.69;;;10.65;85.64
40908;BME280;51055;59.436;24.778;2022-09-21T05:35:34;102081.31;;;10.70;85.84
40908;BME280;51055;59.436;24.778;2022-09-21T05:38:08;102086.91;;;10.79;86.65
40908;BME280;51055;59.436;24.778;2022-09-21T05:40:40;102090.69;;;10.75;85.08
40908;BME280;51055;59.436;24.778;2022-09-21T05:43:09;102086.75;;;10.82;84.66
40908;BME280;51055;59.436;24.778;2022-09-21T05:45:43;102094.81;;;10.95;83.62
40908;BME280;51055;59.436;24.778;2022-09-21T05:48:20;102095.25;;;11.17;83.40
40908;BME280;51055;59.436;24.778;2022-09-21T05:51:02;102098.13;;;11.28;81.77
40908;BME280;51055;59.436;24.778;2022-09-21T06:02:14;102105.97;;;11.74;79.64
40908;BME280;51055;59.436;24.778;2022-09-21T06:04:46;102106.41;;;11.94;77.71
40908;BME280;51055;59.436;24.778;2022-09-21T06:07:14;102106.59;;;12.06;76.06
40908;BME280;51055;59.436;24.778;2022-09-21T06:09:41;102111.28;;;12.29;75.00
40908;BME280;51055;59.436;24.778;2022-09-21T06:12:09;102107.38;;;12.34;74.27
40908;BME280;51055;59.436;24.778;2022-09-21T06:14:39;102110.63;;;12.25;74.09
40908;BME280;51055;59.436;24.778;2022-09-21T06:17:07;102113.56;;;12.21;74.16
40908;BME280;51055;59.436;24.778;2022-09-21T06:19:38;102114.28;;;12.37;74.58
40908;BME280;51055;59.436;24.778;2022-09-21T06:22:06;102117.63;;;12.67;71.94
40908;BME280;51055;59.436;24.778;2022-09-21T06:24:34;102110.34;;;12.96;71.89
40908;BME280;51055;59.436;24.778;2022-09-21T06:27:02;102113.84;;;13.36;69.25
40908;BME280;51055;59.436;24.778;2022-09-21T06:29:32;102116.81;;;13.19;68.12
40908;BME280;51055;59.436;24.778;2022-09-21T06:32:03;102115.53;;;12.72;69.25
40908;BME280;51055;59.436;24.778;2022-09-21T06:34:31;102122.00;;;12.41;71.27
40908;BME280;51055;59.436;24.778;2022-09-21T06:36:59;102124.94;;;12.37;72.80
40908;BME280;51055;59.436;24.778;2022-09-21T06:39:27;102124.09;;;12.63;73.93
40908;BME280;51055;59.436;24.778;2022-09-21T06:41:54;102126.22;;;12.85;71.71
40908;BME280;51055;59.436;24.778;2022-09-21T06:44:22;102122.72;;;12.70;71.44
40908;BME280;51055;59.436;24.778;2022-09-21T06:46:50;102138.63;;;12.45;72.15
40908;BME280;51055;59.436;24.778;2022-09-21T06:49:17;102128.31;;;12.26;72.67
40908;BME280;51055;59.436;24.778;2022-09-21T06:51:47;102136.03;;;12.17;72.95
40908;BME280;51055;59.436;24.778;2022-09-21T06:54:14;102144.75;;;12.19;72.59
40908;BME280;51055;59.436;24.778;2022-09-21T06:56:42;102138.03;;;12.13;73.09
40908;BME280;51055;59.436;24.778;2022-09-21T06:59:10;102141.72;;;12.11;72.95
40908;BME280;51055;59.436;24.778;2022-09-21T07:01:38;102144.41;;;11.96;73.03
40908;BME280;51055;59.436;24.778;2022-09-21T07:04:05;102132.81;;;11.83;73.64
40908;BME280;51055;59.436;24.778;2022-09-21T07:06:36;102131.50;;;11.76;74.19
40908;BME280;51055;59.436;24.778;2022-09-21T07:09:03;102143.06;;;11.75;74.84
40908;BME280;51055;59.436;24.778;2022-09-21T07:11:51;102139.84;;;11.70;74.97
40908;BME280;51055;59.436;24.778;2022-09-21T07:14:19;102147.19;;;11.65;75.63
40908;BME280;51055;59.436;24.778;2022-09-21T07:16:49;102143.78;;;11.63;75.99
40908;BME280;51055;59.436;24.778;2022-09-21T07:19:17;102149.66;;;11.68;76.06
40908;BME280;51055;59.436;24.778;2022-09-21T07:21:45;102146.88;;;11.71;76.19
40908;BME280;51055;59.436;24.778;2022-09-21T07:24:13;102148.56;;;11.72;75.99
40908;BME280;51055;59.436;24.778;2022-09-21T07:26:41;102150.38;;;11.72;75.86
40908;BME280;51055;59.436;24.778;2022-09-21T07:29:08;102147.44;;;11.76;75.74
40908;BME280;51055;59.436;24.778;2022-09-21T07:31:37;102146.88;;;11.85;75.54
40908;BME280;51055;59.436;24.778;2022-09-21T07:34:04;102156.16;;;11.92;75.58
40908;BME280;51055;59.436;24.778;2022-09-21T07:36:32;102158.38;;;12.00;76.06
40908;BME280;51055;59.436;24.778;2022-09-21T07:39:00;102154.38;;;12.07;75.28
40908;BME280;51055;59.436;24.778;2022-09-21T07:41:29;102154.38;;;12.07;74.89
40908;BME280;51055;59.436;24.778;2022-09-21T07:43:56;102157.84;;;12.22;74.46
40908;BME280;51055;59.436;24.778;2022-09-21T07:46:24;102154.19;;;12.51;72.48
40908;BME280;51055;59.436;24.778;2022-09-21T07:48:53;102145.13;;;13.07;71.73
40908;BME280;51055;59.436;24.778;2022-09-21T07:51:23;102149.22;;;14.63;65.26
40908;BME280;51055;59.436;24.778;2022-09-21T07:53:55;102152.47;;;14.66;62.75
40908;BME280;51055;59.436;24.778;2022-09-21T07:56:25;102157.88;;;13.92;63.74
40908;BME280;51055;59.436;24.778;2022-09-21T07:58:53;102159.81;;;13.52;65.92
40908;BME280;51055;59.436;24.778;2022-09-21T08:01:40;102160.34;;;13.05;68.55
40908;BME280;51055;59.436;24.778;2022-09-21T08:04:09;102163.72;;;13.09;69.30
40908;BME280;51055;59.436;24.778;2022-09-21T08:06:37;102163.09;;;13.03;69.17
40908;BME280;51055;59.436;24.778;2022-09-21T08:09:07;102160.31;;;12.92;69.36
40908;BME280;51055;59.436;24.778;2022-09-21T08:11:35;102169.09;;;12.80;69.07
40908;BME280;51055;59.436;24.778;2022-09-21T08:14:03;102162.47;;;12.73;68.81
40908;BME280;51055;59.436;24.778;2022-09-21T08:16:31;102177.00;;;12.41;68.50
40908;BME280;51055;59.436;24.778;2022-09-21T08:19:00;102170.72;;;12.56;68.85
40908;BME280;51055;59.436;24.778;2022-09-21T08:21:29;102176.53;;;12.48;69.24
40908;BME280;51055;59.436;24.778;2022-09-21T08:23:57;102177.53;;;12.60;68.32
40908;BME280;51055;59.436;24.778;2022-09-21T08:26:25;102175.44;;;12.92;66.70
40908;BME280;51055;59.436;24.778;2022-09-21T08:28:53;102183.88;;;12.72;66.20
40908;BME280;51055;59.436;24.778;2022-09-21T08:31:23;102178.03;;;12.52;66.25
40908;BME280;51055;59.436;24.778;2022-09-21T08:33:53;102173.19;;;12.59;66.81
40908;BME280;51055;59.436;24.778;2022-09-21T08:36:21;102185.66;;;12.44;67.66
40908;BME280;51055;59.436;24.778;2022-09-21T08:38:49;102173.94;;;12.47;68.45
40908;BME280;51055;59.436;24.778;2022-09-21T08:44:28;102181.47;;;12.81;67.92
40908;BME280;51055;59.436;24.778;2022-09-21T08:49:41;102183.69;;;12.75;68.86
40908;BME280;51055;59.436;24.778;2022-09-21T08:52:14;102182.09;;;12.72;68.81
40908;BME280;51055;59.436;24.778;2022-09-21T08:57:18;102187.16;;;12.63;69.40
40908;BME280;51055;59.436;24.778;2022-09-21T08:59:48;102187.84;;;12.79;69.52
40908;BME280;51055;59.436;24.778;2022-09-21T09:02:42;102191.72;;;12.87;68.65
40908;BME280;51055;59.436;24.778;2022-09-21T09:08:07;102197.94;;;13.00;67.84
40908;BME280;51055;59.436;24.778;2022-09-21T09:16:21;102194.34;;;13.28;66.79
40908;BME280;51055;59.436;24.778;2022-09-21T09:18:57;102196.03;;;13.02;66.26
40908;BME280;51055;59.436;24.778;2022-09-21T09:21:34;102205.19;;;12.98;67.66
40908;BME280;51055;59.436;24.778;2022-09-21T09:24:08;102203.66;;;13.09;67.86
40908;BME280;51055;59.436;24.778;2022-09-21T09:31:42;102209.88;;;12.95;69.33
40908;BME280;51055;59.436;24.778;2022-09-21T09:36:47;102206.03;;;13.26;68.56
40908;BME280;51055;59.436;24.778;2022-09-21T09:39:28;102204.78;;;13.31;68.16
40908;BME280;51055;59.436;24.778;2022-09-21T09:42:19;102212.72;;;13.19;68.73
40908;BME280;51055;59.436;24.778;2022-09-21T09:48:14;102207.81;;;13.13;69.49
40908;BME280;51055;59.436;24.778;2022-09-21T09:50:46;102217.53;;;13.14;69.93
40908;BME280;51055;59.436;24.778;2022-09-21T09:53:20;102211.69;;;13.21;69.58
40908;BME280;51055;59.436;24.778;2022-09-21T09:55:50;102217.56;;;13.26;69.77
40908;BME280;51055;59.436;24.778;2022-09-21T09:58:42;102219.16;;;13.29;69.61
40908;BME280;51055;59.436;24.778;2022-09-21T10:01:08;102219.56;;;13.23;69.46
40908;BME280;51055;59.436;24.778;2022-09-21T10:03:36;102215.38;;;13.19;69.81
40908;BME280;51055;59.436;24.778;2022-09-21T10:06:04;102215.81;;;13.13;69.96
40908;BME280;51055;59.436;24.778;2022-09-21T10:08:44;102208.31;;;13.05;70.08
40908;BME280;51055;59.436;24.778;2022-09-21T10:11:15;102213.91;;;13.00;70.59
40908;BME280;51055;59.436;24.778;2022-09-21T10:13:47;102215.63;;;13.01;71.08
40908;BME280;51055;59.436;24.778;2022-09-21T10:16:22;102216.88;;;13.10;70.76
40908;BME280;51055;59.436;24.778;2022-09-21T10:18:55;102210.47;;;13.13;70.68
40908;BME280;51055;59.436;24.778;2022-09-21T10:21:32;102217.03;;;13.21;71.13
40908;BME280;51055;59.436;24.778;2022-09-21T10:24:04;102216.16;;;13.21;71.15
40908;BME280;51055;59.436;24.778;2022-09-21T10:26:41;102223.00;;;13.25;71.11
40908;BME280;51055;59.436;24.778;2022-09-21T10:31:59;102211.16;;;13.29;70.77
40908;BME280;51055;59.436;24.778;2022-09-21T10:34:30;102217.25;;;13.31;70.46
40908;BME280;51055;59.436;24.778;2022-09-21T10:37:00;102210.50;;;13.25;70.20
40908;BME280;51055;59.436;24.778;2022-09-21T10:39:32;102216.44;;;13.16;70.50
40908;BME280;51055;59.436;24.778;2022-09-21T10:42:20;102218.66;;;13.10;71.08
40908;BME280;51055;59.436;24.778;2022-09-21T10:45:02;102226.56;;;13.11;71.73
40908;BME280;51055;59.436;24.778;2022-09-21T10:50:01;102224.59;;;13.27;70.92
40908;BME280;51055;59.436;24.778;2022-09-21T10:52:35;102229.75;;;12.89;72.52
40908;BME280;51055;59.436;24.778;2022-09-21T10:55:05;102222.72;;;12.88;73.30
40908;BME280;51055;59.436;24.778;2022-09-21T10:57:39;102233.22;;;13.04;72.85
40908;BME280;51055;59.436;24.778;2022-09-21T11:02:49;102227.19;;;13.41;71.97
40908;BME280;51055;59.436;24.778;2022-09-21T11:05:22;102218.84;;;13.33;71.54
40908;BME280;51055;59.436;24.778;2022-09-21T11:07:56;102227.38;;;13.38;70.72
40908;BME280;51055;59.436;24.778;2022-09-21T11:10:39;102238.38;;;13.34;70.38
40908;BME280;51055;59.436;24.778;2022-09-21T11:16:01;102243.53;;;13.23;71.15
40908;BME280;51055;59.436;24.778;2022-09-21T11:18:45;102235.91;;;13.31;70.78
40908;BME280;51055;59.436;24.778;2022-09-21T11:21:59;102244.66;;;13.33;70.83
40908;BME280;51055;59.436;24.778;2022-09-21T11:25:53;102236.66;;;13.33;70.69
40908;BME280;51055;59.436;24.778;2022-09-21T11:27:56;102241.03;;;13.34;70.34
40908;BME280;51055;59.436;24.778;2022-09-21T11:30:31;102240.78;;;13.24;70.78
40908;BME280;51055;59.436;24.778;2022-09-21T11:39:02;102240.69;;;13.38;70.97
40908;BME280;51055;59.436;24.778;2022-09-21T11:42:08;102249.69;;;13.37;70.26
40908;BME280;51055;59.436;24.778;2022-09-21T11:45:19;102248.13;;;13.21;71.10
40908;BME280;51055;59.436;24.778;2022-09-21T11:56:29;102249.94;;;13.20;72.19
40908;BME280;51055;59.436;24.778;2022-09-21T11:59:31;102246.63;;;13.17;72.07
40908;BME280;51055;59.436;24.778;2022-09-21T12:02:42;102245.75;;;13.16;71.79
40908;BME280;51055;59.436;24.778;2022-09-21T12:05:30;102251.00;;;13.18;72.01
40908;BME280;51055;59.436;24.778;2022-09-21T12:08:41;102245.41;;;13.08;72.21
40908;BME280;51055;59.436;24.778;2022-09-21T12:21:47;102252.69;;;13.19;73.01
40908;BME280;51055;59.436;24.778;2022-09-21T12:24:20;102262.84;;;13.26;73.26
40908;BME280;51055;59.436;24.778;2022-09-21T12:26:57;102260.84;;;13.30;72.50
40908;BME280;51055;59.436;24.778;2022-09-21T12:29:34;102266.63;;;13.36;72.30
40908;BME280;51055;59.436;24.778;2022-09-21T12:35:03;102262.81;;;13.14;71.48
40908;BME280;51055;59.436;24.778;2022-09-21T12:37:41;102260.59;;;13.06;71.68
40908;BME280;51055;59.436;24.778;2022-09-21T12:42:49;102255.22;;;12.93;71.89
40908;BME280;51055;59.436;24.778;2022-09-21T12:45:20;102259.88;;;13.04;71.98
40908;BME280;51055;59.436;24.778;2022-09-21T12:47:58;102254.81;;;13.14;71.56
40908;BME280;51055;59.436;24.778;2022-09-21T12:50:37;102261.47;;;13.06;71.24
40908;BME280;51055;59.436;24.778;2022-09-21T12:53:14;102260.34;;;12.96;70.18
40908;BME280;51055;59.436;24.778;2022-09-21T12:55:54;102266.69;;;12.81;70.04
40908;BME280;51055;59.436;24.778;2022-09-21T13:04:44;102262.50;;;12.77;71.21
40908;BME280;51055;59.436;24.778;2022-09-21T13:07:41;102260.63;;;12.79;70.80
40908;BME280;51055;59.436;24.778;2022-09-21T13:10:35;102257.63;;;12.84;70.96
40908;BME280;51055;59.436;24.778;2022-09-21T13:13:17;102253.31;;;13.10;70.43
40908;BME280;51055;59.436;24.778;2022-09-21T13:15:48;102254.31;;;13.21;69.57
40908;BME280;51055;59.436;24.778;2022-09-21T13:18:26;102247.94;;;13.24;69.30
40908;BME280;51055;59.436;24.778;2022-09-21T13:21:15;102254.78;;;13.28;68.88
40908;BME280;51055;59.436;24.778;2022-09-21T13:24:00;102256.25;;;13.32;68.84
40908;BME280;51055;59.436;24.778;2022-09-21T13:26:39;102251.53;;;13.23;68.85
40908;BME280;51055;59.436;24.778;2022-09-21T13:34:42;102262.31;;;13.07;69.18
40908;BME280;51055;59.436;24.778;2022-09-21T13:39:54;102256.19;;;12.92;69.82
40908;BME280;51055;59.436;24.778;2022-09-21T13:42:46;102259.34;;;12.85;69.85
40908;BME280;51055;59.436;24.778;2022-09-21T13:47:43;102247.88;;;12.70;70.01
40908;BME280;51055;59.436;24.778;2022-09-21T13:50:28;102257.03;;;12.66;70.06
40908;BME280;51055;59.436;24.778;2022-09-21T13:53:03;102253.59;;;12.50;70.44
40908;BME280;51055;59.436;24.778;2022-09-21T13:55:38;102252.47;;;12.54;70.95
40908;BME280;51055;59.436;24.778;2022-09-21T13:58:30;102258.16;;;12.48;69.92
40908;BME280;51055;59.436;24.778;2022-09-21T14:01:01;102257.91;;;12.52;70.48
40908;BME280;51055;59.436;24.778;2022-09-21T14:06:06;102250.78;;;12.53;70.75
40908;BME280;51055;59.436;24.778;2022-09-21T14:08:38;102253.31;;;12.54;70.60
40908;BME280;51055;59.436;24.778;2022-09-21T14:11:21;102259.59;;;12.53;70.51
40908;BME280;51055;59.436;24.778;2022-09-21T14:14:12;102261.22;;;12.42;70.83
40908;BME280;51055;59.436;24.778;2022-09-21T14:16:56;102261.78;;;12.47;70.80
40908;BME280;51055;59.436;24.778;2022-09-21T14:27:33;102253.31;;;12.40;70.95
40908;BME280;51055;59.436;24.778;2022-09-21T14:30:22;102258.56;;;12.42;71.57
40908;BME280;51055;59.436;24.778;2022-09-21T14:35:37;102256.56;;;12.45;71.22
40908;BME280;51055;59.436;24.778;2022-09-21T14:38:30;102264.94;;;12.39;71.31
40908;BME280;51055;59.436;24.778;2022-09-21T14:41:04;102262.47;;;12.36;71.59
40908;BME280;51055;59.436;24.778;2022-09-21T14:43:48;102259.16;;;12.33;72.02
40908;BME280;51055;59.436;24.778;2022-09-21T14:49:37;102261.88;;;12.31;72.43
40908;BME280;51055;59.436;24.778;2022-09-21T14:57:51;102258.16;;;12.34;71.33
40908;BME280;51055;59.436;24.778;2022-09-21T15:00:36;102268.81;;;12.34;71.46
40908;BME280;51055;59.436;24.778;2022-09-21T15:05:57;102261.34;;;12.26;71.96
40908;BME280;51055;59.436;24.778;2022-09-21T15:09:01;102269.69;;;12.20;72.23
40908;BME280;51055;59.436;24.778;2022-09-21T15:11:59;102270.91;;;12.15;72.22
40908;BME280;51055;59.436;24.778;2022-09-21T15:14:36;102277.09;;;12.15;72.61
40908;BME280;51055;59.436;24.778;2022-09-21T15:17:26;102279.19;;;12.10;72.67
40908;BME280;51055;59.436;24.778;2022-09-21T15:19:59;102276.22;;;12.00;73.19
40908;BME280;51055;59.436;24.778;2022-09-21T15:22:27;102280.50;;;12.03;73.49
40908;BME280;51055;59.436;24.778;2022-09-21T15:24:57;102281.63;;;11.99;73.32
40908;BME280;51055;59.436;24.778;2022-09-21T15:27:29;102282.09;;;11.91;74.19
40908;BME280;51055;59.436;24.778;2022-09-21T15:30:03;102280.22;;;11.93;73.93
40908;BME280;51055;59.436;24.778;2022-09-21T15:32:40;102278.50;;;11.92;73.38
40908;BME280;51055;59.436;24.778;2022-09-21T15:37:42;102287.97;;;11.82;73.85
40908;BME280;51055;59.436;24.778;2022-09-21T15:43:02;102289.09;;;11.78;73.47